createdAt,value
2017-12-25T00:00:26.062Z,98653.50
2017-12-25T00:01:29.261Z,98653.91
2017-12-25T00:02:32.232Z,98650.38
2017-12-25T00:03:36.166Z,98649.24
2017-12-25T00:04:39.102Z,98655.25
2017-12-25T00:05:42.373Z,98652.52
2017-12-25T00:06:45.404Z,98641.23
2017-12-25T00:07:48.311Z,98646.70
2017-12-25T00:08:51.360Z,98637.98
2017-12-25T00:09:54.273Z,98639.88
2017-12-25T00:10:57.271Z,98639.90
2017-12-25T00:12:00.199Z,98639.72
2017-12-25T00:13:03.120Z,98646.52
2017-12-25T00:14:06.026Z,98632.91
2017-12-25T00:15:09.027Z,98624.75
2017-12-25T00:16:11.990Z,98632.53
2017-12-25T00:17:15.302Z,98612.34
2017-12-25T00:18:18.240Z,98644.19
2017-12-25T00:19:21.192Z,98634.27
2017-12-25T00:20:24.146Z,98632.88
2017-12-25T00:21:27.022Z,98630.34
2017-12-25T00:22:29.902Z,98631.36
2017-12-25T00:23:33.022Z,98626.88
2017-12-25T00:24:36.036Z,98636.95
2017-12-25T00:25:38.859Z,98624.16
2017-12-25T00:26:41.751Z,98616.79
2017-12-25T00:27:44.549Z,98626.30
2017-12-25T00:28:47.359Z,98623.57
2017-12-25T00:29:50.526Z,98616.95
2017-12-25T00:30:53.328Z,98628.82
2017-12-25T00:31:56.148Z,98619.52
2017-12-25T00:32:58.986Z,98619.09
2017-12-25T00:34:01.836Z,98626.29
2017-12-25T00:35:04.690Z,98626.30
2017-12-25T00:36:07.815Z,98627.66
2017-12-25T00:37:10.598Z,98636.41
2017-12-25T00:38:13.422Z,98619.52
2017-12-25T00:39:16.298Z,98621.27
2017-12-25T00:40:19.232Z,98625.32
2017-12-25T00:41:22.153Z,98621.22
2017-12-25T00:42:25.641Z,98624.73
2017-12-25T00:43:28.560Z,98623.01
2017-12-25T00:44:31.451Z,98609.03
2017-12-25T00:45:34.358Z,98625.14
2017-12-25T00:46:37.301Z,98622.41
2017-12-25T00:47:40.237Z,98617.16
2017-12-25T00:48:43.500Z,98620.23
2017-12-25T00:49:46.465Z,98614.06
2017-12-25T00:50:49.389Z,98612.13
2017-12-25T00:51:52.330Z,98622.59
2017-12-25T00:52:55.267Z,98616.70
2017-12-25T00:53:58.235Z,98615.05
2017-12-25T00:55:01.437Z,98612.90
2017-12-25T00:56:04.345Z,98617.52
2017-12-25T00:57:07.274Z,98599.08
2017-12-25T00:58:10.136Z,98608.80
2017-12-25T00:59:13.119Z,98610.94
2017-12-25T01:00:15.997Z,98607.83
2017-12-25T01:01:19.129Z,98613.25
2017-12-25T01:02:21.980Z,98619.13
2017-12-25T01:03:24.828Z,98610.37
2017-12-25T01:04:27.977Z,98603.74
2017-12-25T01:05:30.833Z,98602.58
2017-12-25T01:06:33.699Z,98606.86
2017-12-25T01:07:36.825Z,98585.13
2017-12-25T01:08:39.776Z,98602.36
2017-12-25T01:09:42.706Z,98605.69
2017-12-25T01:10:45.661Z,98611.50
2017-12-25T01:11:48.550Z,98613.69
2017-12-25T01:12:51.399Z,98617.39
2017-12-25T01:13:54.498Z,98614.06
2017-12-25T01:14:57.471Z,98603.98
2017-12-25T01:16:00.361Z,98613.05
2017-12-25T01:17:03.232Z,98590.58
2017-12-25T01:18:06.068Z,98590.94
2017-12-25T01:19:08.935Z,98597.77
2017-12-25T01:20:12.099Z,98604.55
2017-12-25T01:21:14.991Z,98609.03
2017-12-25T01:22:17.901Z,98600.05
2017-12-25T01:23:20.822Z,98607.63
2017-12-25T01:24:23.731Z,98596.75
2017-12-25T01:25:26.658Z,98599.66
2017-12-25T01:26:29.551Z,98596.17
2017-12-25T01:27:33.553Z,98607.66
2017-12-25T01:28:36.411Z,98599.08
2017-12-25T01:29:39.281Z,98593.30
2017-12-25T01:30:42.138Z,98587.42
2017-12-25T01:31:44.988Z,98591.70
2017-12-25T01:32:48.524Z,98557.52
2017-12-25T01:33:51.461Z,98590.75
2017-12-25T01:34:54.378Z,98589.95
2017-12-25T01:35:57.332Z,98588.22
2017-12-25T01:37:00.289Z,98588.80
2017-12-25T01:38:03.199Z,98589.77
2017-12-25T01:39:06.127Z,98588.05
2017-12-25T01:40:09.058Z,98594.61
2017-12-25T01:41:11.992Z,98590.73
2017-12-25T01:42:14.903Z,98588.03
2017-12-25T01:43:17.809Z,98582.95
2017-12-25T01:44:21.137Z,98581.25
2017-12-25T01:45:24.126Z,98580.66
2017-12-25T01:46:26.933Z,98579.65
2017-12-25T01:47:29.698Z,98583.19
2017-12-25T01:48:32.536Z,98581.03
2017-12-25T01:49:35.445Z,98583.73
2017-12-25T01:50:38.576Z,98582.53
2017-12-25T01:51:41.434Z,98584.14
2017-12-25T01:52:44.367Z,98580.06
2017-12-25T01:53:47.319Z,98576.77
2017-12-25T01:54:50.317Z,98558.91
2017-12-25T01:55:53.154Z,98578.92
2017-12-25T01:56:56.451Z,98578.31
2017-12-25T01:57:59.410Z,98576.34
2017-12-25T01:59:02.330Z,98579.30
2017-12-25T02:00:05.241Z,98567.98
2017-12-25T02:01:08.253Z,98575.72
2017-12-25T02:02:11.197Z,98574.81
2017-12-25T02:03:14.688Z,98569.78
2017-12-25T02:04:17.629Z,98573.59
2017-12-25T02:05:20.527Z,98570.52
2017-12-25T02:06:23.440Z,98577.34
2017-12-25T02:07:26.363Z,98567.63
2017-12-25T02:08:29.364Z,98576.78
2017-12-25T02:09:33.321Z,98566.67
2017-12-25T02:10:36.257Z,98571.53
2017-12-25T02:11:39.174Z,98577.13
2017-12-25T02:12:42.102Z,98575.59
2017-12-25T02:13:45.046Z,98574.52
2017-12-25T02:14:47.952Z,98574.91
2017-12-25T02:15:51.440Z,98574.84
2017-12-25T02:16:54.364Z,98582.37
2017-12-25T02:17:57.293Z,98573.87
2017-12-25T02:19:00.267Z,98566.11
2017-12-25T02:20:04.784Z,98574.59
2017-12-25T02:21:08.062Z,98577.92
2017-12-25T02:22:10.982Z,98573.81
2017-12-25T02:23:13.912Z,98576.95
2017-12-25T02:24:16.841Z,98572.27
2017-12-25T02:25:19.654Z,98576.37
2017-12-25T02:26:22.473Z,98577.28
2017-12-25T02:27:26.568Z,98578.09
2017-12-25T02:28:29.380Z,98572.65
2017-12-25T02:29:32.203Z,98568.37
2017-12-25T02:30:34.990Z,98573.39
2017-12-25T02:31:37.889Z,98569.97
2017-12-25T02:32:40.730Z,98574.20
2017-12-25T02:33:43.807Z,98563.77
2017-12-25T02:34:46.620Z,98560.67
2017-12-25T02:35:50.234Z,98571.34
2017-12-25T02:36:53.015Z,98556.98
2017-12-25T02:37:55.878Z,98561.84
2017-12-25T02:38:58.683Z,98564.55
2017-12-25T02:40:01.944Z,98558.91
2017-12-25T02:41:04.803Z,98553.30
2017-12-25T02:42:07.618Z,98556.77
2017-12-25T02:43:10.538Z,98559.69
2017-12-25T02:44:13.459Z,98552.89
2017-12-25T02:45:16.404Z,98549.00
2017-12-25T02:46:20.537Z,98561.64
2017-12-25T02:47:23.453Z,98551.33
2017-12-25T02:48:26.397Z,98542.02
2017-12-25T02:49:29.399Z,98558.13
2017-12-25T02:50:32.325Z,98547.44
2017-12-25T02:51:35.239Z,98553.08
2017-12-25T02:52:38.620Z,98552.69
2017-12-25T02:53:41.563Z,98552.11
2017-12-25T02:54:44.514Z,98541.84
2017-12-25T02:55:47.484Z,98542.61
2017-12-25T02:56:50.516Z,98544.14
2017-12-25T02:57:53.403Z,98545.67
2017-12-25T02:58:56.626Z,98544.34
2017-12-25T02:59:59.669Z,98542.95
2017-12-25T03:01:02.605Z,98545.05
2017-12-25T03:02:05.520Z,98545.83
2017-12-25T03:03:08.500Z,98539.45
2017-12-25T03:04:11.422Z,98545.28
2017-12-25T03:05:14.609Z,98537.34
2017-12-25T03:06:17.540Z,98534.45
2017-12-25T03:07:20.405Z,98545.89
2017-12-25T03:08:23.315Z,98539.28
2017-12-25T03:09:26.269Z,98541.03
2017-12-25T03:10:29.162Z,98539.30
2017-12-25T03:11:32.372Z,98527.81
2017-12-25T03:12:35.371Z,98533.45
2017-12-25T03:13:38.284Z,98529.95
2017-12-25T03:14:41.184Z,98539.86
2017-12-25T03:15:44.100Z,98541.39
2017-12-25T03:16:47.000Z,98522.22
2017-12-25T03:17:51.248Z,98531.13
2017-12-25T03:18:54.216Z,98535.95
2017-12-25T03:19:57.165Z,98541.78
2017-12-25T03:21:00.084Z,98537.15
2017-12-25T03:22:03.010Z,98536.95
2017-12-25T03:23:05.915Z,98546.09
2017-12-25T03:24:09.225Z,98545.44
2017-12-25T03:25:12.089Z,98544.14
2017-12-25T03:26:14.968Z,98534.06
2017-12-25T03:27:17.840Z,98549.75
2017-12-25T03:28:20.699Z,98537.53
2017-12-25T03:29:23.573Z,98529.77
2017-12-25T03:30:26.880Z,98531.31
2017-12-25T03:31:29.879Z,98534.03
2017-12-25T03:32:32.776Z,98532.65
2017-12-25T03:33:36.029Z,98539.84
2017-12-25T03:34:38.961Z,98534.03
2017-12-25T03:35:41.857Z,98531.72
2017-12-25T03:36:45.203Z,98525.68
2017-12-25T03:37:48.115Z,98524.92
2017-12-25T03:38:51.048Z,98525.88
2017-12-25T03:39:53.980Z,98520.27
2017-12-25T03:40:56.787Z,98520.63
2017-12-25T03:41:59.643Z,98522.99
2017-12-25T03:43:02.941Z,98521.63
2017-12-25T03:44:05.758Z,98519.51
2017-12-25T03:45:08.574Z,98514.83
2017-12-25T03:46:11.386Z,98509.02
2017-12-25T03:47:14.293Z,98514.27
2017-12-25T03:48:17.203Z,98507.86
2017-12-25T03:49:20.471Z,98503.19
2017-12-25T03:50:23.408Z,98508.81
2017-12-25T03:51:26.328Z,98508.63
2017-12-25T03:52:29.168Z,98500.48
2017-12-25T03:53:31.971Z,98506.84
2017-12-25T03:54:34.820Z,98510.20
2017-12-25T03:55:38.047Z,98500.46
2017-12-25T03:56:40.848Z,98508.64
2017-12-25T03:57:43.745Z,98510.77
2017-12-25T03:58:46.672Z,98510.95
2017-12-25T03:59:49.565Z,98510.72
2017-12-25T04:00:52.474Z,98504.12
2017-12-25T04:01:55.726Z,98504.36
2017-12-25T04:02:58.683Z,98499.46
2017-12-25T04:04:01.587Z,98503.78
2017-12-25T04:05:04.490Z,98508.27
2017-12-25T04:06:07.384Z,98504.58
2017-12-25T04:07:10.508Z,98502.79
2017-12-25T04:08:13.628Z,98501.43
2017-12-25T04:09:16.426Z,98499.12
2017-12-25T04:10:20.145Z,98499.14
2017-12-25T04:11:22.937Z,98495.99
2017-12-25T04:12:25.745Z,98493.83
2017-12-25T04:13:28.591Z,98497.20
2017-12-25T04:14:31.766Z,98490.59
2017-12-25T04:15:34.681Z,98490.59
2017-12-25T04:16:37.688Z,98496.58
2017-12-25T04:17:40.645Z,98494.85
2017-12-25T04:18:43.494Z,98492.87
2017-12-25T04:19:46.364Z,98492.74
2017-12-25T04:20:49.708Z,98494.48
2017-12-25T04:21:52.552Z,98490.19
2017-12-25T04:22:55.405Z,98489.43
2017-12-25T04:23:58.222Z,98486.13
2017-12-25T04:25:01.064Z,98485.70
2017-12-25T04:26:04.824Z,98482.41
2017-12-25T04:27:07.848Z,98480.70
2017-12-25T04:28:10.600Z,98485.53
2017-12-25T04:29:13.375Z,98484.75
2017-12-25T04:30:16.352Z,98488.63
2017-12-25T04:31:19.261Z,98484.75
2017-12-25T04:32:22.182Z,98477.77
2017-12-25T04:33:25.592Z,98472.52
2017-12-25T04:34:28.524Z,98485.12
2017-12-25T04:35:31.422Z,98488.80
2017-12-25T04:36:34.254Z,98482.20
2017-12-25T04:37:37.152Z,98481.64
2017-12-25T04:38:40.092Z,98485.55
2017-12-25T04:39:43.419Z,98475.05
2017-12-25T04:40:46.292Z,98476.59
2017-12-25T04:41:49.295Z,98473.31
2017-12-25T04:42:52.223Z,98471.55
2017-12-25T04:43:55.134Z,98475.98
2017-12-25T04:44:58.045Z,98472.88
2017-12-25T04:46:01.358Z,98473.85
2017-12-25T04:47:04.287Z,98466.73
2017-12-25T04:48:07.195Z,98467.30
2017-12-25T04:49:10.084Z,98474.05
2017-12-25T04:50:12.985Z,98466.30
2017-12-25T04:51:16.653Z,98460.33
2017-12-25T04:52:19.941Z,98460.50
2017-12-25T04:53:22.828Z,98463.39
2017-12-25T04:54:25.626Z,98471.33
2017-12-25T04:55:28.475Z,98453.27
2017-12-25T04:56:31.285Z,98456.41
2017-12-25T04:57:34.082Z,98449.80
2017-12-25T04:58:37.273Z,98450.16
2017-12-25T04:59:41.120Z,98456.95
2017-12-25T05:00:43.931Z,98456.14
2017-12-25T05:01:46.866Z,98450.38
2017-12-25T05:02:49.709Z,98457.77
2017-12-25T05:03:52.525Z,98455.27
2017-12-25T05:04:55.606Z,98454.23
2017-12-25T05:05:58.742Z,98462.39
2017-12-25T05:07:01.652Z,98456.18
2017-12-25T05:08:04.578Z,98450.19
2017-12-25T05:09:07.473Z,98455.63
2017-12-25T05:10:11.035Z,98454.05
2017-12-25T05:11:14.331Z,98456.20
2017-12-25T05:12:17.237Z,98459.28
2017-12-25T05:13:20.156Z,98456.38
2017-12-25T05:14:23.072Z,98458.50
2017-12-25T05:15:26.040Z,98456.38
2017-12-25T05:16:28.937Z,98458.51
2017-12-25T05:17:32.172Z,98454.08
2017-12-25T05:18:35.002Z,98449.93
2017-12-25T05:19:37.882Z,98457.77
2017-12-25T05:20:40.761Z,98445.69
2017-12-25T05:21:43.645Z,98439.70
2017-12-25T05:22:46.757Z,98443.80
2017-12-25T05:23:49.618Z,98440.14
2017-12-25T05:24:52.488Z,98436.82
2017-12-25T05:25:55.450Z,98437.20
2017-12-25T05:26:58.374Z,98433.52
2017-12-25T05:28:01.405Z,98435.01
2017-12-25T05:29:04.919Z,98440.31
2017-12-25T05:30:08.014Z,98441.03
2017-12-25T05:31:11.082Z,98429.18
2017-12-25T05:32:13.960Z,98438.92
2017-12-25T05:33:16.905Z,98437.53
2017-12-25T05:34:19.721Z,98437.95
2017-12-25T05:35:22.987Z,98432.52
2017-12-25T05:36:25.804Z,98436.02
2017-12-25T05:37:28.694Z,98437.38
2017-12-25T05:38:31.666Z,98436.23
2017-12-25T05:39:34.570Z,98436.72
2017-12-25T05:40:37.514Z,98430.55
2017-12-25T05:41:40.819Z,98433.71
2017-12-25T05:42:43.766Z,98433.69
2017-12-25T05:43:46.779Z,98439.15
2017-12-25T05:44:49.760Z,98437.14
2017-12-25T05:45:52.736Z,98436.04
2017-12-25T05:46:55.591Z,98439.34
2017-12-25T05:47:58.771Z,98433.16
2017-12-25T05:49:01.607Z,98435.40
2017-12-25T05:50:04.484Z,98436.79
2017-12-25T05:51:07.324Z,98434.81
2017-12-25T05:52:10.080Z,98435.23
2017-12-25T05:53:12.896Z,98434.32
2017-12-25T05:54:16.043Z,98435.39
2017-12-25T05:55:18.804Z,98430.34
2017-12-25T05:56:21.549Z,98428.79
2017-12-25T05:58:32.836Z,98427.30
2017-12-25T05:59:35.650Z,98419.67
2017-12-25T06:00:38.860Z,98425.69
2017-12-25T06:01:41.662Z,98430.58
2017-12-25T06:02:44.465Z,98420.87
2017-12-25T06:03:47.430Z,98426.33
2017-12-25T06:04:50.337Z,98422.23
2017-12-25T06:05:53.425Z,98421.70
2017-12-25T06:06:56.801Z,98427.66
2017-12-25T06:07:59.701Z,98425.56
2017-12-25T06:09:02.648Z,98422.62
2017-12-25T06:10:05.735Z,98417.38
2017-12-25T06:11:08.584Z,98428.59
2017-12-25T06:12:11.650Z,98420.59
2017-12-25T06:13:14.847Z,98423.36
2017-12-25T06:14:17.719Z,98417.98
2017-12-25T06:15:20.929Z,98419.54
2017-12-25T06:16:23.885Z,98420.48
2017-12-25T06:17:26.791Z,98419.66
2017-12-25T06:18:29.709Z,98429.56
2017-12-25T06:19:32.922Z,98414.88
2017-12-25T06:20:35.902Z,98422.84
2017-12-25T06:21:38.796Z,98420.09
2017-12-25T06:22:41.749Z,98412.72
2017-12-25T06:23:44.894Z,98419.73
2017-12-25T06:24:47.732Z,98419.51
2017-12-25T06:25:50.874Z,98415.85
2017-12-25T06:26:53.658Z,98415.00
2017-12-25T06:27:56.441Z,98432.13
2017-12-25T06:28:59.250Z,98416.98
2017-12-25T06:30:02.056Z,98414.46
2017-12-25T06:31:04.854Z,98415.43
2017-12-25T06:32:07.948Z,98417.95
2017-12-25T06:33:11.154Z,98409.86
2017-12-25T06:34:13.965Z,98416.59
2017-12-25T06:35:16.742Z,98420.34
2017-12-25T06:36:20.447Z,98420.70
2017-12-25T06:37:23.389Z,98415.23
2017-12-25T06:38:26.701Z,98414.22
2017-12-25T06:39:29.640Z,98406.50
2017-12-25T06:40:32.541Z,98413.33
2017-12-25T06:41:35.525Z,98407.31
2017-12-25T06:42:38.378Z,98414.63
2017-12-25T06:43:41.341Z,98409.03
2017-12-25T06:44:44.467Z,98408.02
2017-12-25T06:45:47.304Z,98410.73
2017-12-25T06:46:50.227Z,98410.34
2017-12-25T06:47:53.164Z,98409.37
2017-12-25T06:48:57.114Z,98404.33
2017-12-25T06:50:00.088Z,98400.43
2017-12-25T06:51:03.392Z,98402.39
2017-12-25T06:52:06.339Z,98404.13
2017-12-25T06:53:09.249Z,98401.80
2017-12-25T06:54:12.635Z,98398.54
2017-12-25T06:55:15.541Z,98393.53
2017-12-25T06:56:18.426Z,98395.39
2017-12-25T06:57:21.722Z,98396.16
2017-12-25T06:58:24.660Z,98393.41
2017-12-25T06:59:27.583Z,98393.30
2017-12-25T07:00:30.531Z,98390.93
2017-12-25T07:01:33.438Z,98389.56
2017-12-25T07:02:36.376Z,98387.44
2017-12-25T07:03:39.604Z,98385.29
2017-12-25T07:04:43.539Z,98390.34
2017-12-25T07:05:46.426Z,98380.09
2017-12-25T07:06:49.355Z,98382.45
2017-12-25T07:07:52.269Z,98381.88
2017-12-25T07:08:55.167Z,98379.19
2017-12-25T07:09:58.333Z,98382.80
2017-12-25T07:11:01.189Z,98387.63
2017-12-25T07:12:04.019Z,98383.20
2017-12-25T07:13:06.886Z,98384.52
2017-12-25T07:14:11.018Z,98383.55
2017-12-25T07:15:13.951Z,98382.19
2017-12-25T07:16:17.212Z,98388.24
2017-12-25T07:17:20.103Z,98384.02
2017-12-25T07:18:23.009Z,98383.00
2017-12-25T07:19:25.950Z,98387.47
2017-12-25T07:20:28.868Z,98378.96
2017-12-25T07:21:31.849Z,98376.48
2017-12-25T07:22:35.293Z,98381.64
2017-12-25T07:23:38.162Z,98378.30
2017-12-25T07:24:41.013Z,98374.61
2017-12-25T07:25:43.880Z,98375.33
2017-12-25T07:26:46.786Z,98373.45
2017-12-25T07:27:49.648Z,98370.38
2017-12-25T07:28:52.923Z,98372.33
2017-12-25T07:29:55.769Z,98370.96
2017-12-25T07:30:58.737Z,98368.29
2017-12-25T07:32:01.587Z,98372.71
2017-12-25T07:33:04.432Z,98383.63
2017-12-25T07:34:07.323Z,98378.80
2017-12-25T07:35:10.625Z,98373.67
2017-12-25T07:36:13.517Z,98380.09
2017-12-25T07:37:16.368Z,98378.34
2017-12-25T07:38:19.302Z,98380.52
2017-12-25T07:39:22.143Z,98374.85
2017-12-25T07:40:25.076Z,98377.56
2017-12-25T07:41:28.334Z,98382.81
2017-12-25T07:42:31.229Z,98372.52
2017-12-25T07:43:34.178Z,98370.72
2017-12-25T07:44:37.007Z,98372.17
2017-12-25T07:45:39.813Z,98378.97
2017-12-25T07:46:42.696Z,98374.30
2017-12-25T07:47:45.960Z,98374.50
2017-12-25T07:48:48.837Z,98358.23
2017-12-25T07:49:51.645Z,98364.25
2017-12-25T07:50:54.485Z,98370.97
2017-12-25T07:51:57.305Z,98372.91
2017-12-25T07:53:00.116Z,98369.61
2017-12-25T07:54:03.594Z,98369.41
2017-12-25T07:55:06.537Z,98372.91
2017-12-25T07:56:09.451Z,98374.12
2017-12-25T07:57:12.356Z,98377.61
2017-12-25T07:58:15.867Z,98368.63
2017-12-25T07:59:18.853Z,98384.75
2017-12-25T08:00:22.080Z,98376.20
2017-12-25T08:01:25.047Z,98376.98
2017-12-25T08:02:28.219Z,98364.02
2017-12-25T08:03:31.133Z,98376.02
2017-12-25T08:04:34.317Z,98372.33
2017-12-25T08:05:37.256Z,98376.59
2017-12-25T08:06:41.557Z,98377.57
2017-12-25T08:07:44.546Z,98369.26
2017-12-25T08:08:47.477Z,98375.44
2017-12-25T08:09:51.350Z,98369.81
2017-12-25T08:10:54.324Z,98374.06
2017-12-25T08:11:57.244Z,98360.33
2017-12-25T08:13:00.464Z,98366.31
2017-12-25T08:14:03.419Z,98364.25
2017-12-25T08:15:06.340Z,98375.86
2017-12-25T08:16:09.259Z,98355.87
2017-12-25T08:17:12.204Z,98367.12
2017-12-25T08:18:15.011Z,98367.12
2017-12-25T08:19:18.162Z,98364.59
2017-12-25T08:20:20.974Z,98365.14
2017-12-25T08:21:23.823Z,98364.60
2017-12-25T08:22:26.655Z,98364.02
2017-12-25T08:23:29.476Z,98363.63
2017-12-25T08:24:32.276Z,98351.66
2017-12-25T08:25:35.443Z,98351.44
2017-12-25T08:26:38.366Z,98354.94
2017-12-25T08:27:41.280Z,98358.20
2017-12-25T08:28:44.269Z,98359.55
2017-12-25T08:29:47.191Z,98360.37
2017-12-25T08:30:50.168Z,98358.81
2017-12-25T08:31:53.402Z,98362.05
2017-12-25T08:32:57.346Z,98352.56
2017-12-25T08:34:00.270Z,98355.13
2017-12-25T08:35:03.271Z,98339.08
2017-12-25T08:36:06.215Z,98348.95
2017-12-25T08:37:09.126Z,98352.41
2017-12-25T08:38:12.430Z,98361.50
2017-12-25T08:39:15.350Z,98359.94
2017-12-25T08:40:18.157Z,98360.33
2017-12-25T08:41:20.994Z,98354.70
2017-12-25T08:42:23.910Z,98343.73
2017-12-25T08:43:26.842Z,98352.80
2017-12-25T08:44:30.110Z,98354.55
2017-12-25T08:45:33.034Z,98358.78
2017-12-25T08:46:36.040Z,98348.69
2017-12-25T08:47:38.997Z,98355.28
2017-12-25T08:48:42.002Z,98366.00
2017-12-25T08:49:44.929Z,98353.73
2017-12-25T08:50:48.124Z,98353.99
2017-12-25T08:51:52.024Z,98345.65
2017-12-25T08:52:54.878Z,98357.27
2017-12-25T08:53:57.824Z,98361.73
2017-12-25T08:55:00.727Z,98355.32
2017-12-25T08:56:03.627Z,98345.20
2017-12-25T08:57:06.870Z,98361.14
2017-12-25T08:58:09.904Z,98352.61
2017-12-25T08:59:12.824Z,98352.02
2017-12-25T09:00:15.760Z,98352.99
2017-12-25T09:01:18.585Z,98357.48
2017-12-25T09:02:21.413Z,98345.65
2017-12-25T09:03:24.552Z,98347.98
2017-12-25T09:04:28.408Z,98358.62
2017-12-25T09:05:31.365Z,98346.98
2017-12-25T09:06:34.280Z,98354.00
2017-12-25T09:07:37.273Z,98356.09
2017-12-25T09:08:41.087Z,98362.50
2017-12-25T09:09:44.530Z,98350.50
2017-12-25T09:10:47.489Z,98349.14
2017-12-25T09:11:50.408Z,98355.95
2017-12-25T09:12:53.424Z,98363.31
2017-12-25T09:13:56.438Z,98350.11
2017-12-25T09:14:59.326Z,98354.62
2017-12-25T09:16:02.522Z,98347.78
2017-12-25T09:17:05.459Z,98345.65
2017-12-25T09:18:08.444Z,98337.91
2017-12-25T09:19:12.240Z,98354.38
2017-12-25T09:20:15.167Z,98350.11
2017-12-25T09:21:18.306Z,98342.55
2017-12-25T09:22:21.164Z,98348.41
2017-12-25T09:23:24.075Z,98359.81
2017-12-25T09:24:26.966Z,98354.20
2017-12-25T09:25:29.855Z,98355.16
2017-12-25T09:26:32.715Z,98345.07
2017-12-25T09:27:36.553Z,98350.50
2017-12-25T09:28:39.495Z,98353.02
2017-12-25T09:29:42.472Z,98347.20
2017-12-25T09:30:45.514Z,98350.50
2017-12-25T09:31:48.509Z,98345.84
2017-12-25T09:32:51.510Z,98340.22
2017-12-25T09:33:54.836Z,98355.94
2017-12-25T09:34:57.811Z,98349.77
2017-12-25T09:36:00.763Z,98344.14
2017-12-25T09:37:03.770Z,98352.83
2017-12-25T09:38:06.755Z,98344.30
2017-12-25T09:39:09.730Z,98351.47
2017-12-25T09:40:12.981Z,98359.04
2017-12-25T09:41:16.034Z,98359.40
2017-12-25T09:42:19.094Z,98353.82
2017-12-25T09:43:22.562Z,98346.47
2017-12-25T09:44:26.202Z,98354.41
2017-12-25T09:45:29.174Z,98355.37
2017-12-25T09:46:33.092Z,98352.05
2017-12-25T09:47:36.005Z,98349.36
2017-12-25T09:48:38.930Z,98368.77
2017-12-25T09:49:41.851Z,98325.14
2017-12-25T09:50:45.009Z,98348.82
2017-12-25T09:51:47.978Z,98357.70
2017-12-25T09:52:51.206Z,98346.68
2017-12-25T09:53:54.118Z,98349.55
2017-12-25T09:54:57.154Z,98354.23
2017-12-25T09:56:00.073Z,98347.03
2017-12-25T09:57:03.042Z,98354.80
2017-12-25T09:58:06.010Z,98348.75
2017-12-25T09:59:09.294Z,98348.39
2017-12-25T10:00:12.208Z,98347.45
2017-12-25T10:01:15.115Z,98341.81
2017-12-25T10:02:18.284Z,98352.67
2017-12-25T10:03:21.263Z,98347.42
2017-12-25T10:04:25.043Z,98349.38
2017-12-25T10:05:28.294Z,98349.16
2017-12-25T10:06:31.193Z,98337.35
2017-12-25T10:07:34.126Z,98333.49
2017-12-25T10:08:37.101Z,98341.44
2017-12-25T10:09:40.058Z,98333.06
2017-12-25T10:10:42.971Z,98333.84
2017-12-25T10:11:46.203Z,98332.13
2017-12-25T10:12:49.409Z,98337.91
2017-12-25T10:13:52.324Z,98332.12
2017-12-25T10:14:55.248Z,98329.23
2017-12-25T10:15:58.161Z,98319.13
2017-12-25T10:17:01.382Z,98347.23
2017-12-25T10:18:05.799Z,98328.81
2017-12-25T10:19:08.773Z,98337.91
2017-12-25T10:20:11.731Z,98337.53
2017-12-25T10:21:14.723Z,98324.74
2017-12-25T10:22:17.700Z,98323.20
2017-12-25T10:23:20.678Z,98322.61
2017-12-25T10:24:24.874Z,98313.30
2017-12-25T10:25:27.721Z,98312.70
2017-12-25T10:26:30.648Z,98323.75
2017-12-25T10:27:33.563Z,98319.32
2017-12-25T10:28:36.639Z,98324.14
2017-12-25T10:29:39.545Z,98311.94
2017-12-25T10:30:42.896Z,98310.56
2017-12-25T10:31:45.792Z,98316.73
2017-12-25T10:32:48.808Z,98299.16
2017-12-25T10:33:52.342Z,98314.05
2017-12-25T10:34:55.205Z,98302.25
2017-12-25T10:35:58.088Z,98306.88
2017-12-25T10:37:01.356Z,98293.30
2017-12-25T10:38:04.395Z,98310.78
2017-12-25T10:39:07.509Z,98279.78
2017-12-25T10:40:10.473Z,98300.67
2017-12-25T10:41:13.397Z,98304.16
2017-12-25T10:42:16.328Z,98305.33
2017-12-25T10:43:19.233Z,98303.43
2017-12-25T10:44:22.226Z,98299.92
2017-12-25T10:45:25.187Z,98290.97
2017-12-25T10:46:28.120Z,98287.72
2017-12-25T10:47:31.057Z,98290.19
2017-12-25T10:48:34.478Z,98288.70
2017-12-25T10:49:37.462Z,98284.80
2017-12-25T10:50:40.535Z,98282.50
2017-12-25T10:51:43.475Z,98277.05
2017-12-25T10:52:46.419Z,98278.75
2017-12-25T10:53:49.425Z,98259.02
2017-12-25T10:54:52.329Z,98274.91
2017-12-25T10:55:55.271Z,98275.45
2017-12-25T10:56:58.199Z,98269.08
2017-12-25T10:58:01.161Z,98281.50
2017-12-25T10:59:04.090Z,98252.59
2017-12-25T11:00:07.046Z,98248.53
2017-12-25T11:01:10.297Z,98233.64
2017-12-25T11:02:13.258Z,98241.57
2017-12-25T11:03:16.350Z,98244.48
2017-12-25T11:04:20.196Z,98246.39
2017-12-25T11:05:23.143Z,98239.41
2017-12-25T11:06:26.168Z,98245.97
2017-12-25T11:07:29.501Z,98244.41
2017-12-25T11:08:32.510Z,98245.58
2017-12-25T11:09:35.429Z,98241.89
2017-12-25T11:10:38.268Z,98239.02
2017-12-25T11:11:41.076Z,98241.89
2017-12-25T11:12:43.924Z,98238.28
2017-12-25T11:13:47.420Z,98218.34
2017-12-25T11:14:50.546Z,98239.05
2017-12-25T11:15:53.449Z,98231.25
2017-12-25T11:16:56.307Z,98232.43
2017-12-25T11:17:59.123Z,98225.16
2017-12-25T11:19:02.115Z,98218.46
2017-12-25T11:20:05.295Z,98218.56
2017-12-25T11:21:08.146Z,98215.55
2017-12-25T11:22:11.214Z,98214.49
2017-12-25T11:23:14.138Z,98216.13
2017-12-25T11:24:17.199Z,98199.70
2017-12-25T11:25:20.143Z,98208.57
2017-12-25T11:26:23.515Z,98216.86
2017-12-25T11:27:26.466Z,98205.95
2017-12-25T11:28:29.356Z,98203.66
2017-12-25T11:29:32.242Z,98203.19
2017-12-25T11:30:35.221Z,98203.19
2017-12-25T11:31:38.261Z,98192.27
2017-12-25T11:32:41.445Z,98200.81
2017-12-25T11:33:44.661Z,98190.92
2017-12-25T11:34:47.499Z,98205.23
2017-12-25T11:35:50.410Z,98211.09
2017-12-25T11:36:54.175Z,98196.36
2017-12-25T11:37:57.116Z,98194.84
2017-12-25T11:39:00.243Z,98161.11
2017-12-25T11:40:03.123Z,98183.34
2017-12-25T11:41:05.893Z,98179.03
2017-12-25T11:42:08.805Z,98177.28
2017-12-25T11:43:12.263Z,98164.98
2017-12-25T11:44:15.851Z,98163.83
2017-12-25T11:45:19.909Z,98170.75
2017-12-25T11:46:22.961Z,98162.28
2017-12-25T11:47:26.011Z,98151.98
2017-12-25T11:48:28.946Z,98159.70
2017-12-25T11:49:31.918Z,98173.74
2017-12-25T11:50:34.882Z,98162.21
2017-12-25T11:51:38.217Z,98160.73
2017-12-25T11:52:41.120Z,98159.69
2017-12-25T11:53:44.206Z,98168.42
2017-12-25T11:54:47.312Z,98160.86
2017-12-25T11:55:51.922Z,98157.37
2017-12-25T11:56:55.350Z,98169.20
2017-12-25T11:57:58.820Z,98153.29
2017-12-25T11:59:01.744Z,98161.88
2017-12-25T12:00:04.808Z,98143.28
2017-12-25T12:01:07.831Z,98133.63
2017-12-25T12:02:10.795Z,98146.20
2017-12-25T12:03:13.742Z,98120.80
2017-12-25T12:04:17.360Z,98134.23
2017-12-25T12:05:20.316Z,98123.94
2017-12-25T12:06:23.278Z,98128.54
2017-12-25T12:07:26.194Z,98127.13
2017-12-25T12:08:29.261Z,98132.81
2017-12-25T12:09:32.197Z,98141.16
2017-12-25T12:10:35.684Z,98141.41
2017-12-25T12:11:39.208Z,98137.27
2017-12-25T12:12:42.846Z,98125.70
2017-12-25T12:13:45.868Z,98124.77
2017-12-25T12:14:49.055Z,98130.59
2017-12-25T12:15:52.125Z,98131.77
2017-12-25T12:16:55.777Z,98125.16
2017-12-25T12:17:58.984Z,98123.23
2017-12-25T12:19:02.428Z,98130.22
2017-12-25T12:20:05.378Z,98093.84
2017-12-25T12:21:08.312Z,98117.44